createdAt,value
2023-05-04T16:04:15.067Z,21.10
2023-05-04T16:04:26.067Z,21.70
2023-05-04T16:04:36.244Z,23.90
2023-05-04T16:04:46.546Z,18.50
2023-05-04T16:04:57.436Z,16.40
2023-05-04T16:05:06.734Z,18.40
2023-05-04T16:05:17.368Z,20.20
2023-05-04T16:05:26.841Z,22.80
2023-05-04T16:05:37.046Z,18.50
2023-05-04T16:05:47.093Z,19.40
2023-05-04T16:06:07.214Z,17.30
2023-05-04T16:06:17.914Z,17.10
2023-05-04T16:06:27.628Z,16.60
2023-05-04T16:06:38.170Z,18.60
2023-05-04T16:06:47.759Z,23.30
2023-05-04T16:06:57.992Z,21.90
2023-05-04T16:07:08.042Z,27.10
2023-05-04T16:07:18.146Z,32.10
2023-05-04T16:07:28.335Z,35.40
2023-05-04T16:07:38.446Z,30.50
2023-05-04T16:07:48.563Z,19.80
2023-05-04T16:07:58.832Z,27.30
2023-05-04T16:08:09.016Z,33.80
2023-05-04T16:08:19.050Z,44.40
2023-05-04T16:08:29.113Z,31.70
2023-05-04T16:08:39.255Z,28.10
2023-05-04T16:08:49.533Z,17.90
2023-05-04T16:08:59.566Z,26.30
2023-05-04T16:09:09.834Z,31.50
2023-05-04T16:09:19.961Z,34.80
2023-05-04T16:09:29.933Z,28.50
2023-05-04T16:09:39.928Z,16.90
2023-05-04T16:09:50.216Z,14.20
2023-05-04T16:10:00.443Z,16.20
2023-05-04T16:10:10.651Z,17.10
2023-05-04T16:10:21.268Z,16.20
2023-05-04T16:10:30.684Z,13.00
2023-05-04T16:10:40.912Z,14.70
2023-05-04T16:10:50.920Z,16.50
2023-05-04T16:11:01.127Z,16.30
2023-05-04T16:11:11.166Z,15.20
2023-05-04T16:11:21.372Z,28.70
2023-05-04T16:11:32.116Z,35.10
2023-05-04T16:11:41.455Z,41.40
2023-05-04T16:11:51.891Z,38.30
2023-05-04T16:12:01.722Z,71.40
2023-05-04T16:12:12.029Z,73.50
2023-05-04T16:12:21.899Z,69.00
2023-05-04T16:12:41.206Z,36.30
2023-05-04T16:12:52.400Z,36.60
2023-05-04T16:13:02.579Z,49.20
2023-05-04T16:13:12.756Z,52.70
2023-05-04T16:13:22.785Z,53.50
2023-05-04T16:13:32.834Z,49.40
2023-05-04T16:13:42.863Z,46.40
2023-05-04T16:13:53.024Z,45.10
2023-05-04T16:14:03.097Z,35.90
2023-05-04T16:14:13.201Z,30.40
2023-05-04T16:14:23.392Z,26.10
2023-05-04T16:14:34.058Z,23.50
2023-05-04T16:14:43.551Z,31.30
2023-05-04T16:14:53.669Z,42.90
2023-05-04T16:15:03.872Z,49.20
2023-05-04T16:15:14.457Z,64.90
2023-05-04T16:15:24.065Z,58.70
2023-05-04T16:15:34.219Z,62.60
2023-05-04T16:15:44.394Z,44.90
2023-05-04T16:15:54.460Z,50.00
2023-05-04T16:16:04.644Z,57.10
2023-05-04T16:16:14.835Z,60.20
2023-05-04T16:16:25.010Z,55.30
2023-05-04T16:16:35.115Z,31.70
2023-05-04T16:16:45.206Z,25.90
2023-05-04T16:16:55.352Z,15.80
2023-05-04T16:17:06.530Z,18.00
2023-05-04T16:17:15.583Z,19.60
2023-05-04T16:17:26.077Z,22.10
2023-05-04T16:17:36.048Z,22.00
2023-05-04T16:17:45.854Z,21.40
2023-05-04T16:17:55.858Z,22.50
2023-05-04T16:18:15.217Z,20.70
2023-05-04T16:18:27.198Z,28.40
2023-05-04T16:18:36.972Z,31.70
2023-05-04T16:18:47.461Z,36.50
2023-05-04T16:18:56.764Z,26.70
2023-05-04T16:19:08.458Z,26.20
2023-05-04T16:19:17.522Z,25.40
2023-05-04T16:19:27.877Z,27.80
2023-05-04T16:19:37.230Z,24.60
2023-05-04T16:19:58.238Z,17.30
2023-05-04T16:20:07.739Z,18.60
2023-05-04T16:20:18.046Z,20.60
2023-05-04T16:20:28.189Z,22.00
2023-05-04T16:20:37.734Z,20.30
2023-05-04T16:20:48.115Z,20.50
2023-05-04T16:20:58.913Z,18.80
2023-05-04T16:21:08.234Z,19.10
2023-05-04T16:21:18.376Z,17.70
2023-05-04T16:21:29.788Z,17.00
2023-05-04T16:21:38.668Z,16.50
2023-05-04T16:21:48.754Z,15.20
2023-05-04T16:21:59.085Z,18.40
2023-05-04T16:22:09.022Z,18.70
2023-05-04T16:22:19.203Z,18.40
2023-05-04T16:22:38.792Z,15.90
2023-05-04T16:22:50.105Z,17.00
2023-05-04T16:23:00.422Z,24.20
2023-05-04T16:23:09.764Z,32.40
2023-05-04T16:23:19.972Z,34.20
2023-05-04T16:23:30.386Z,28.30
2023-05-04T16:23:40.232Z,20.20
2023-05-04T16:23:50.245Z,18.40
2023-05-04T16:24:00.740Z,18.30
2023-05-04T16:24:10.628Z,17.40
2023-05-04T16:24:21.365Z,16.90
2023-05-04T16:24:31.821Z,21.10
2023-05-04T16:24:41.069Z,22.80
2023-05-04T16:24:51.061Z,23.50
2023-05-04T16:25:01.798Z,20.80
2023-05-04T16:25:11.828Z,22.50
2023-05-04T16:25:21.500Z,24.60
2023-05-04T16:25:41.733Z,25.80
2023-05-04T16:25:51.819Z,25.30
2023-05-04T16:26:01.935Z,27.30
2023-05-04T16:26:12.027Z,27.70
2023-05-04T16:26:22.188Z,26.90
2023-05-04T16:26:32.194Z,24.90
2023-05-04T16:26:42.331Z,23.70
2023-05-04T16:26:52.393Z,26.80
2023-05-04T16:27:02.515Z,26.00
2023-05-04T16:27:12.542Z,24.00
2023-05-04T16:27:22.800Z,27.20
2023-05-04T16:27:32.903Z,29.70
2023-05-04T16:27:43.235Z,33.70
2023-05-04T16:27:53.190Z,28.40
2023-05-04T16:28:03.313Z,26.30
2023-05-04T16:28:13.355Z,22.90
2023-05-04T16:28:23.325Z,23.60
2023-05-04T16:28:33.609Z,25.10
2023-05-04T16:28:43.731Z,22.60
2023-05-04T16:28:53.921Z,20.70
2023-05-04T16:29:04.021Z,20.00
2023-05-04T16:29:14.106Z,22.50
2023-05-04T16:29:24.242Z,26.20
2023-05-04T16:29:34.410Z,26.00
2023-05-04T16:29:44.524Z,26.30
2023-05-04T16:29:54.675Z,23.10
2023-05-04T16:30:04.856Z,23.70
2023-05-04T16:30:14.977Z,25.20
2023-05-04T16:30:25.192Z,34.00
2023-05-04T16:30:35.282Z,34.10
2023-05-04T16:30:45.460Z,31.60
2023-05-04T16:30:55.427Z,24.70
2023-05-04T16:31:05.604Z,27.30
2023-05-04T16:31:15.777Z,32.30
2023-05-04T16:31:25.784Z,32.50
2023-05-04T16:31:35.943Z,36.20
2023-05-04T16:31:46.099Z,32.20
2023-05-04T16:31:56.252Z,32.80
2023-05-04T16:32:06.175Z,25.90
2023-05-04T16:32:16.593Z,27.60
2023-05-04T16:32:26.611Z,24.70
2023-05-04T16:32:36.812Z,29.50
2023-05-04T16:32:46.805Z,28.50
2023-05-04T16:32:56.993Z,74.80
2023-05-04T16:33:07.134Z,70.60
2023-05-04T16:33:17.298Z,71.70
2023-05-04T16:33:27.719Z,28.70
2023-05-04T16:33:37.574Z,28.60
2023-05-04T16:33:47.742Z,29.30
2023-05-04T16:33:57.809Z,25.80
2023-05-04T16:34:08.115Z,26.90
2023-05-04T16:34:18.017Z,22.00
2023-05-04T16:34:28.125Z,25.40
2023-05-04T16:34:38.373Z,24.50
2023-05-04T16:34:48.628Z,24.60
2023-05-04T16:34:59.056Z,21.60
2023-05-04T16:35:12.025Z,20.60
2023-05-04T16:35:19.428Z,20.50
2023-05-04T16:35:30.488Z,19.30
2023-05-04T16:35:39.684Z,23.80
2023-05-04T16:35:49.060Z,23.80
2023-05-04T16:35:59.310Z,25.70
2023-05-04T16:36:20.265Z,17.80
2023-05-04T16:36:30.560Z,17.30
2023-05-04T16:36:47.674Z,17.90
2023-05-04T16:36:54.281Z,16.70
2023-05-04T16:37:11.268Z,16.20
2023-05-04T16:37:18.807Z,16.90
2023-05-04T16:37:29.397Z,17.60
2023-05-04T16:37:39.309Z,16.90
2023-05-04T16:37:49.505Z,17.90
2023-05-04T16:38:00.261Z,18.60
2023-05-04T16:38:13.132Z,21.80
2023-05-04T16:38:21.732Z,22.50
2023-05-04T16:38:29.639Z,22.10
2023-05-04T16:38:39.682Z,19.10
2023-05-04T16:38:49.719Z,17.50
2023-05-04T16:39:00.045Z,16.50
2023-05-04T16:39:20.735Z,14.90
2023-05-04T16:39:30.947Z,15.10
2023-05-04T16:39:40.712Z,15.50
2023-05-04T16:39:50.860Z,15.80
2023-05-04T16:40:03.502Z,17.20
2023-05-04T16:40:11.104Z,16.80
2023-05-04T16:40:21.046Z,16.40
2023-05-04T16:40:31.142Z,15.10
2023-05-04T16:40:41.550Z,15.90
2023-05-04T16:40:51.812Z,17.30
2023-05-04T16:41:11.451Z,18.50
2023-05-04T16:41:23.422Z,16.50
2023-05-04T16:41:34.222Z,15.90
2023-05-04T16:41:43.187Z,15.90
2023-05-04T16:41:52.382Z,16.80
2023-05-04T16:42:02.821Z,17.30
2023-05-04T16:42:12.895Z,18.40
2023-05-04T16:42:23.541Z,18.00
2023-05-04T16:42:42.563Z,17.00
2023-05-04T16:42:52.757Z,17.90
2023-05-04T16:43:02.695Z,18.70
2023-05-04T16:43:12.950Z,19.70
2023-05-04T16:43:22.861Z,20.60
2023-05-04T16:43:33.192Z,23.10
2023-05-04T16:43:43.167Z,21.60
2023-05-04T16:43:53.442Z,40.60
2023-05-04T16:44:03.527Z,41.90
2023-05-04T16:44:13.547Z,45.20
2023-05-04T16:44:23.589Z,32.50
2023-05-04T16:44:33.664Z,32.10
2023-05-04T16:44:44.046Z,38.10
2023-05-04T16:44:54.941Z,31.60
2023-05-04T16:45:04.153Z,64.40
2023-05-04T16:45:14.415Z,58.80
2023-05-04T16:45:25.131Z,58.90
2023-05-04T16:45:34.416Z,23.00
2023-05-04T16:45:44.535Z,20.60
2023-05-04T16:46:04.856Z,27.10
2023-05-04T16:46:15.401Z,25.90
2023-05-04T16:46:25.084Z,22.70
2023-05-04T16:46:35.203Z,18.80
2023-05-04T16:46:46.045Z,27.90
2023-05-04T16:46:55.373Z,41.10
2023-05-04T16:47:05.479Z,44.60
2023-05-04T16:47:15.741Z,34.40
2023-05-04T16:47:25.918Z,62.00
2023-05-04T16:47:36.127Z,72.40
2023-05-04T16:47:46.312Z,74.10
2023-05-04T16:47:56.641Z,31.70
2023-05-04T16:48:07.095Z,20.00
2023-05-04T16:48:21.225Z,21.00
2023-05-04T16:48:30.591Z,23.30
2023-05-04T16:48:39.105Z,25.90
2023-05-04T16:48:49.504Z,26.10
2023-05-04T16:49:07.685Z,23.30
2023-05-04T16:49:17.424Z,19.80
2023-05-04T16:49:24.019Z,22.60
2023-05-04T16:49:33.869Z,24.50
2023-05-04T16:49:44.425Z,30.70
2023-05-04T16:50:03.279Z,29.70
2023-05-04T16:50:13.887Z,31.80
2023-05-04T16:50:20.541Z,32.50
2023-05-04T16:50:39.558Z,40.00
2023-05-04T16:50:45.537Z,32.60
2023-05-04T16:50:55.594Z,25.00
2023-05-04T16:51:06.751Z,22.40
2023-05-04T16:51:26.403Z,22.60
2023-05-04T16:51:33.684Z,24.90
2023-05-04T16:51:42.813Z,28.30
2023-05-04T16:51:52.882Z,27.60
2023-05-04T16:52:02.973Z,26.90
2023-05-04T16:52:13.104Z,21.50
2023-05-04T16:52:33.641Z,17.60
2023-05-04T16:52:43.588Z,16.90
2023-05-04T16:52:53.494Z,18.20
2023-05-04T16:53:03.822Z,20.00
2023-05-04T16:53:14.208Z,21.20
2023-05-04T16:53:24.004Z,20.30
2023-05-04T16:53:34.042Z,20.10
2023-05-04T16:53:44.630Z,18.00
2023-05-04T16:53:54.436Z,16.40
2023-05-04T16:54:04.681Z,14.10
2023-05-04T16:54:14.671Z,32.60
2023-05-04T16:54:24.665Z,40.60
2023-05-04T16:54:34.761Z,48.00
2023-05-04T16:54:44.926Z,31.30
2023-05-04T16:54:55.092Z,24.40
2023-05-04T16:55:05.107Z,18.30
2023-05-04T16:55:16.108Z,19.80
2023-05-04T16:55:25.359Z,21.80
2023-05-04T16:55:35.797Z,22.50
2023-05-04T16:55:46.465Z,23.80
2023-05-04T16:55:55.846Z,21.20
2023-05-04T16:56:06.059Z,21.70
2023-05-04T16:56:16.638Z,19.80
2023-05-04T16:56:26.280Z,28.80
2023-05-04T16:56:36.461Z,30.00
2023-05-04T16:56:46.558Z,27.10
2023-05-04T16:56:57.068Z,22.40
2023-05-04T16:57:06.706Z,21.90
2023-05-04T16:57:16.730Z,25.50
2023-05-04T16:57:26.987Z,21.60
2023-05-04T16:57:36.847Z,23.20
2023-05-04T16:57:48.317Z,20.90
2023-05-04T16:57:57.714Z,22.20
2023-05-04T16:58:07.415Z,18.90
2023-05-04T16:58:17.530Z,19.20
2023-05-04T16:58:27.474Z,17.10
2023-05-04T16:58:50.535Z,16.30
2023-05-04T16:58:57.067Z,14.40
2023-05-04T16:59:09.460Z,17.30
2023-05-04T16:59:23.220Z,18.50
2023-05-04T16:59:32.646Z,21.00
2023-05-04T16:59:39.596Z,19.20
2023-05-04T16:59:59.916Z,16.50
2023-05-04T17:00:10.152Z,17.70
2023-05-04T17:00:20.236Z,18.50
2023-05-04T17:00:30.581Z,17.50
2023-05-04T17:00:40.394Z,16.30
2023-05-04T17:00:51.058Z,17.10
2023-05-04T17:01:00.585Z,17.70
2023-05-04T17:01:11.313Z,18.80
2023-05-04T17:01:20.699Z,17.30
2023-05-04T17:01:31.105Z,17.60
2023-05-04T17:01:41.123Z,16.90
2023-05-04T17:01:51.146Z,16.00
2023-05-04T17:02:01.377Z,15.90
2023-05-04T17:02:11.725Z,14.00
2023-05-04T17:02:21.605Z,16.60
2023-05-04T17:02:31.778Z,16.60
2023-05-04T17:02:42.071Z,19.20
2023-05-04T17:02:52.123Z,24.60
2023-05-04T17:03:03.761Z,24.90
2023-05-04T17:03:13.118Z,22.80
2023-05-04T17:03:22.488Z,17.20
2023-05-04T17:03:32.387Z,19.80
2023-05-04T17:03:42.473Z,20.40
2023-05-04T17:03:52.674Z,18.00
2023-05-04T17:04:12.749Z,18.80
2023-05-04T17:04:23.034Z,19.90
2023-05-04T17:04:33.051Z,17.00
2023-05-04T17:04:43.463Z,12.30
2023-05-04T17:04:53.403Z,11.70
